Canton, Ohio
Current Conditions -  °F | °C
As of 5:51 PM on Saturday 25 Oct 2014 (Local Time) from KCAK Reporting Station
Few Clouds Few Clouds  
Wind Chill: 69°   Ceiling: Unl
Heat Index: 69°   Visibility: 10mi
Dew Point: 47°   Wind: 20mph
Humidity: 45%   Direction: 280°W
Pressure: 29.76"   Gusts: 28mph
Location:  40.8°N, 81.37°W
Report Text: KCAK 252151Z 28017G24KT 10SM FEW038 21/08 A2976 RMK AO2 PK WND 28026/2114 SLP074 T02060083
Loading
Personal Weather Stations






























Interactive Weather Map
Tropical Storm Tracking
New forecast layout! Learn more

10-Day Weather Forecast

Advertisements
Track Severe Weather on mobile